Logo AVAMET
Benvolgut visitant, si us plau, ingressa Recuperar contrasenya

Inforatge Pedreguer

Dades diàries. Acumulats / Últims 30 dies disponibles

Data Temperatura (°C) Humitat rel. (%) Pressió rel. (hPa) Vent (km/h) Precipitació
Mínima Mitjana Màxima Amplitud
tèrmica
Mínima Mitjana Màxima Mínima Mitjana Màxima Predom. Mitjana Ràfega
màxima
Total
(mm)
Índex-n
Mínima Mitjana Màxima Mínima Mitjana Màxima n
0 a 1
P0 max
mm 5'
Dades mensuals acumulades fins l'últim dia disponible
08/2019 21,1 23,3 26,5 27,1 26,4 31,7 38,0 16,9 23 71 97 1.010 1.017 1.023   7,0 46,7 68,2
Dades anuals acumulades fins l'últim dia disponible
2019 4,7 14,8 27,9 18,7 10,8 23,1 39,6 34,9 17 65 98 995 1.019 1.037   7,0 74,1 425,2
Últims 30 dies disponibles
23-08-2019 21,8     23,0     26,4 4,6 66 83 87 1.022 1.022 1.023 SO 3,4 13,0 0,0
22-08-2019 21,1     24,5     29,1 8,0 54 75 86 1.020 1.021 1.023 S 4,9 20,9 0,0
21-08-2019 21,5     24,5     27,5 6,0 53 79 97 1.020 1.021 1.022 SE 5,3 32,2 66,6 0,58 6,00
20-08-2019 24,1     25,8     29,3 5,2 68 82 89 1.016 1.018 1.021 SSE 8,2 38,9 1,4
19-08-2019 24,1     26,9     29,9 5,8 56 80 89 1.014 1.016 1.017 SSO 7,0 25,9 0,0
18-08-2019 22,8     28,4     35,6 12,8 42 71 92 1.012 1.014 1.016 SE 6,6 40,7 0,0
17-08-2019 22,2     27,6     33,8 11,6 49 67 87 1.013 1.016 1.019 SE 7,1 40,7 0,0
16-08-2019 21,9     26,9     30,9 9,0 50 65 84 1.016 1.019 1.021 SSE 9,5 46,7 0,0
15-08-2019 22,4     27,1     32,2 9,8 39 66 85 1.017 1.019 1.020 SSE 8,4 45,0 0,0
14-08-2019 21,6     26,5     31,4 9,8 51 68 80 1.017 1.020 1.021 SSE 8,3 33,9 0,0
13-08-2019 23,4     25,8     29,0 5,6 49 68 85 1.019 1.020 1.021 SE 6,7 29,6 0,0
12-08-2019 24,6     25,8     28,5 3,9 60 79 90 1.014 1.016 1.020 SSO 8,6 38,9 0,0
11-08-2019 25,9     28,4     32,6 6,7 65 79 91 1.013 1.015 1.017 SO 8,9 37,0 0,2
10-08-2019 26,5     30,8     33,4 6,9 35 56 91 1.014 1.017 1.019 S 6,4 25,9 0,0
09-08-2019 24,1     31,3     38,0 13,9 23 51 90 1.012 1.014 1.015 SE 5,5 31,5 0,0
08-08-2019 24,3     30,4     35,9 11,6 30 56 91 1.012 1.014 1.015 SSO 8,0 38,9 0,0
07-08-2019 24,3     28,9     34,6 10,3 39 72 92 1.011 1.012 1.015 SSE 4,2 25,9 0,0
06-08-2019 24,8     29,2     35,2 10,4 50 72 88 1.010 1.013 1.016 SSE 6,5 31,5 0,0
05-08-2019 23,8     27,2     32,1 8,3 60 77 87 1.013 1.016 1.017 S 6,1 25,9 0,0
04-08-2019 22,2     27,7     35,1 12,9 40 63 85 1.014 1.015 1.017 SE 7,9 37,0 0,0
03-08-2019 22,9     26,6     31,8 8,9 39 69 86 1.014 1.016 1.018 SSE 8,5 35,4 0,0
02-08-2019 22,6     25,8     30,2 7,6 59 75 87 1.015 1.016 1.018 SO 6,9 25,9 0,0
01-08-2019 23,6     25,0     27,3 3,7 67 80 87 1.013 1.015 1.017 OSO 8,6 29,6 0,0
31-07-2019 23,8     25,5     29,0 5,2 59 79 91 1.016 1.018 1.019 SSE 5,8 27,8 0,0
30-07-2019 22,7     26,2     29,2 6,5 55 73 80 1.012 1.015 1.018 S 7,6 32,2 0,0
29-07-2019 22,2     27,4     32,9 10,7 42 62 82 1.010 1.012 1.013 SSE 9,8 48,3 0,0
28-07-2019 22,3     26,5     30,0 7,7 45 61 78 1.010 1.011 1.013 S 7,7 35,4 0,0
27-07-2019 23,3     29,2     35,8 12,5 21 47 88 1.005 1.008 1.011 OSO 9,6 45,0 0,0
26-07-2019 23,1     27,6     31,9 8,8 37 67 87 1.009 1.012 1.015 S 5,8 29,6 0,0
25-07-2019 24,2     29,3     35,4 11,2 31 46 75 1.013 1.016 1.017 SSE 7,1 32,2 0,0
Últims 13 mesos disponibles
07/2019 21,5 23,1 27,9 27,2 27,9 32,1 39,6 18,1 45 65 80 1.008 1.016 1.023 SSE 6,9 66,7 1,2
06/2019 15,1 18,4 22,3 22,9 21,7 27,4 36,2 21,1 40 64 84 1.010 1.017 1.023 SSE 7,9 50,0 0,8
05/2019 10,1 15,0 21,3 19,0 19,4 23,5 30,2 20,1 50 67 83 1.006 1.017 1.026 SSE 6,8 68,5 8,6
04/2019 9,8 12,1 13,9 15,5 14,0 19,5 27,9 18,1 40 69 93 1.001 1.014 1.026 S 8,2 66,7 264,0
03/2019 7,9 10,7 16,1 14,9 11,2 19,2 27,4 19,5 37 60 91 1.012 1.024 1.031 SSE 5,9 56,3 77,8
02/2019 6,3 8,9 12,1 12,8 12,2 17,1 22,6 16,3 36 63 84 997 1.026 1.035 S 6,0 74,1 0,0
01/2019 4,7 8,6 13,3 12,0 10,8 16,0 20,9 16,2 40 59 84 1.004 1.020 1.031 S 6,9 66,7 4,6
12/2018 7,1 10,2 14,1 14,0 12,3 18,4 24,1 17,0 51 69 90 1.010 1.026 1.032 SSE 3,7 58,0 37,4
11/2018 8,4 12,6 16,2 15,3 14,4 18,6 24,2 15,8 46 70 93 1.002 1.016 1.025 OSO 5,7 82,0 128,4
10/2018 8,7 15,9 20,1 19,2 14,4 23,0 28,2 19,5 43 71 88 1.001 1.016 1.027 S 5,6 63,0 95,0
09/2018 16,2 21,2 23,6 24,3 24,3 28,1 32,8 16,6 62 78 89 1.014 1.020 1.029 5,2 59,6 53,8
08/2018 20,5 23,5 27,4 27,3 25,7 31,6 37,2 16,7 45 69 83 1.014 1.018 1.023 6,4 50,0 55,8
07/2018 20,9 23,1 25,3 27,2 27,2 31,6 35,7 14,8 39 66 88 1.011 1.016 1.021 7,7 50,0 1,2
Tots els anys disponibles
2018 3,8 15,3 27,4 18,9 7,7 23,0 37,2 33,4 37 68 93 999 1.018 1.032 SSE 6,6 82,0 590,6
2017 4,7 12,6 19,2 16,2 11,6 20,3 28,9 24,2 60 60 60 1.015 1.015 1.015 5,3 72,2 56,0
Temperatura (°C)
Humitat relativa (%)
Velocitat del vent i ràfega màxima (km/h)
Direcció del vent (°)
Pressió (hPa)
Precipitació (mm)
Nota sobre les dades: s'avisa a l'usuari de la provisionalitat i no oficialitat d'aquestes dades
Logo AVAMET blanc
Web allotjada a Sollutia
Llicència de Creative CommonsLa web d'AVAMET i els seus continguts estan subjectes a una llicència de
Reconeixement - No Comercial - Compartir igual
Properes estacions: Altea - Club Nàutic d'Altea (Soci), Ares del Maestrat (Ajuntament Soci),      - - - - -      Últimes estacions: Catadau - Urb. Lloma Molina (Inforatge), Ontinyent - El Pilar (Soci) - - -